Terminal Aerodrome Forecast
Issued by NWS Sterling, VA

Current Version | Previous Version | Text Only | Print | Product List | Glossary On
Versions: 1 2 3 4 5 6 7 8 9 10 11 12 13 14 15 16 17
000
FTUS41 KLWX 252340
TAFMRB
TAF
KMRB 252340Z 2600/2624 17007KT P6SM BKN050
     FM261300 15004KT 5SM BR BKN050
     FM261500 20010KT 5SM BR BKN050
     FM261600 20012KT P6SM BKN050
     FM261900 21016G26KT P6SM BKN050
     FM262200 25013G22KT P6SM OVC050
     FM262300 27013G27KT 6SM -SHRA OVC050=

USA.gov is the U.S. government's official web portal to all federal, state and local government web resources and services.